Latest Coastal Weather Observations for Hobart Airport

IDT60701

Issued at 5:51 am EST Tuesday 1 September 2015 (issued every 10 minutes, with the page automatically refreshed every 10 minutes)

About coastal observations | Map of coastal stations | Coastal observations for TAS | Marine services | Other Formats
Station Details ID: 094008 Name: HOBART AIRPORT Lat: -42.83 Lon: 147.50 Height: 4.0 m
Data from the previous 72 hours. | See also: Recent months at Hobart Airport
Date/Time
EST
Temp

°C
Wind Pressure Rain
since 9am
mm
Weather Cloud Vis
km
Sea
Height
m
Swell
Dir
 
Speed
knots
Gust
knots
hPa Trend Height
m
Period
s
Dir
01/05:30am 7.4 NW 6 7 1016.5 - 0.6 - Partly cloudy 10 - - - -
01/05:00am 7.6 WNW 6 9 1016.6 - 0.6 - Partly cloudy 10 - - - -
01/04:30am 7.3 WNW 4 5 1016.6 - 0.6 - Partly cloudy 10 - - - -
01/04:00am 7.5 SW 5 6 1016.7 - 0.6 - Partly cloudy 10 - - - -
01/03:55am 7.6 SW 5 6 1016.7 - 0.6 - Partly cloudy 10 - - - -
01/03:30am 7.6 CALM 0 0 1016.9 - 0.6 - Partly cloudy 10 - - - -
01/03:05am 7.6 CALM 0 0 1017.0 - 0.6 - Partly cloudy 10 - - - -
01/03:00am 7.6 CALM 0 3 1017.1 F 0.6 - Cloudy 10 - - - -
01/02:52am 7.5 SW 3 4 1017.1 - 0.6 - Partly cloudy 10 - - - -
01/02:30am 7.7 SW 4 6 1017.2 - 0.6 - Partly cloudy 10 - - - -
01/02:16am 7.5 WSW 5 6 1017.4 - 0.6 - Partly cloudy 10 - - - -
01/02:11am 7.5 WSW 5 7 1017.4 - 0.6 - Partly cloudy 10 - - - -
01/02:00am 7.6 WSW 6 8 1017.6 - 0.6 - Partly cloudy 10 - - - -
01/01:30am 7.9 SW 6 8 1018.0 - 0.6 - Partly cloudy 10 - - - -
01/01:27am 7.8 SW 6 7 1018.0 - 0.6 - Partly cloudy 10 - - - -
01/01:10am 8.1 SSW 5 6 1018.1 - 0.6 - Partly cloudy 6 - - - -
01/01:05am 8.1 SSW 5 6 1018.2 - 0.6 - Partly cloudy 10 - - - -
01/01:00am 8.0 SSW 5 6 1018.2 - 0.6 - Partly cloudy 8 - - - -
01/12:54am 7.9 SSW 6 8 1018.2 - 0.6 - Partly cloudy 6 - - - -
01/12:48am 7.8 SSW 7 8 1018.2 - 0.6 - Partly cloudy 10 - - - -
01/12:43am 7.7 SW 6 8 1018.3 - 0.2 - Partly cloudy 10 - - - -
01/12:30am 8.1 SSW 5 6 1018.4 - 0.2 - Partly cloudy 10 - - - -
01/12:29am 8.2 SSW 5 6 1018.4 - 0.2 - Partly cloudy 10 - - - -
01/12:28am 8.1 SSW 5 6 1018.4 - 0.2 - Partly cloudy 10 - - - -
01/12:11am 8.2 SSW 5 7 1018.4 - 0.2 - Partly cloudy 10 - - - -
01/12:00am 8.2 S 5 6 1018.3 F 0.2 - Cloudy 10 - - - -
 
Date/Time
EST
Temp

°C
Wind Pressure Rain
since 9am
mm
Weather Cloud Vis
km
Sea
Height
m
Swell
Dir
 
Speed
knots
Gust
knots
hPa Trend Height
m
Period
s
Dir
31/11:30pm 7.9 SSW 5 7 1018.3 - 0.2 - Partly cloudy 10 - - - -
31/11:00pm 8.2 SSW 5 6 1018.7 - 0.2 - Partly cloudy 10 - - - -
31/10:30pm 8.1 SSW 5 6 1018.9 - 0.2 - Partly cloudy 10 - - - -
31/10:00pm 8.6 SW 5 6 1019.2 - 0.2 - Cloudy 10 - - - -
31/09:30pm 8.6 SSW 5 6 1019.3 - 0.2 - Cloudy 10 - - - -
31/09:00pm 8.8 SSW 7 8 1019.4 F 0.2 - Cloudy 10 - - - -
31/08:30pm 8.7 SSW 7 8 1019.3 - 0.2 - Cloudy 10 - - - -
31/08:00pm 8.7 S 4 6 1019.2 - 0.2 - Partly cloudy 10 - - - -
31/07:30pm 8.9 SSW 5 6 1019.2 - 0.2 - Partly cloudy 10 - - - -
31/07:00pm 8.8 SSW 7 9 1019.2 - 0.2 - Mostly clear 10 - - - -
31/06:45pm 8.7 SW 7 9 1019.1 - 0.2 - Mostly clear 10 - - - -
31/06:30pm 8.7 SSW 7 10 1019.1 - 0.2 Drizzle Mostly clear 6 - - - -
31/06:09pm 8.7 SW 9 12 1019.2 - 0.0 Drizzle Mostly clear 4 - - - -
31/06:00pm 8.7 SW 8 11 1019.2 F 0.0 Drizzle Cloudy 15 - - - -
31/05:30pm 8.8 SSW 8 10 1019.3 - 0.0 Drizzle Partly cloudy 10 - - - -
31/05:05pm 8.9 SSW 9 13 1019.3 - 0.0 - Mostly clear 10 - - - -
31/05:00pm 8.9 SSW 9 15 1019.3 - 0.0 - Mostly clear 10 - - - -
31/04:30pm 9.2 SSW 11 15 1019.3 - 0.0 Drizzle Partly cloudy 8 - - - -
31/04:00pm 9.6 SSW 11 15 1019.4 - 0.0 - Mostly clear 10 - - - -
31/03:30pm 10.2 SSW 11 15 1019.3 - 0.0 Drizzle Mostly clear 10 - - - -
31/03:00pm 10.5 SSW 10 15 1019.7 F 0.0 Distant precip. Mostly cloudy 40 - - - -
31/02:30pm 10.5 SSW 10 14 1019.8 - 0.0 - Partly cloudy 10 - - - -
31/02:00pm 10.4 SSE 10 15 1020.0 - 0.0 - Mostly cloudy 10 - - - -
31/01:30pm 10.4 SSE 9 12 1020.1 - 0.0 - Partly cloudy 10 - - - -
31/01:00pm 10.3 SSW 10 14 1020.6 - 0.0 - Mostly cloudy 10 - - - -
31/12:30pm 10.6 S 9 13 1020.8 - 0.0 - Partly cloudy 10 - - - -
31/12:00pm 10.6 S 9 14 1021.1 F 0.0 Fine Mostly cloudy 35 - - - -
31/11:30am 10.1 S 9 13 1021.5 - 0.0 - Mostly clear 10 - - - -
31/11:00am 10.3 SSW 7 10 1021.6 - 0.0 - Mostly clear 10 - - - -
31/10:30am 10.4 S 7 9 1021.8 - 0.0 - Mostly clear 10 - - - -
31/10:00am 9.5 S 7 10 1022.0 - 0.0 - Partly cloudy 10 - - - -
31/09:30am 9.0 SSW 6 9 1022.3 - 0.0 - Mostly clear 10 - - - -
31/09:00am 9.0 S 7 10 1022.3 F 1.8 Fine Mostly cloudy 30 - - - -
31/08:30am 8.0 SSW 5 6 1022.4 - 1.8 - Mostly clear 10 - - - -
31/08:00am 7.6 SSW 5 6 1022.5 - 1.8 - Mostly clear 10 - - - -
31/07:30am 7.1 S 5 6 1022.4 - 1.8 - Mostly clear 10 - - - -
31/07:00am 6.7 CALM 0 3 1022.3 - 1.8 - Mostly clear 10 - - - -
31/06:30am 6.8 SSW 6 8 1022.1 - 1.8 - Mostly clear 10 - - - -
31/06:00am 6.8 SW 5 6 1022.2 F 1.8 Distant precip. Mostly cloudy 30 - - - -
31/05:30am 6.9 SSW 6 7 1022.3 - 1.8 - Mostly clear 10 - - - -
31/05:00am 6.8 SW 5 6 1022.4 - 1.8 - Mostly clear 10 - - - -
31/04:50am 6.7 SW 6 7 1022.4 - 1.8 - Partly cloudy 10 - - - -
31/04:30am 6.9 SW 7 9 1022.6 - 1.6 Drizzle Partly cloudy 5 - - - -
31/04:00am 6.7 SW 6 8 1022.5 - 1.6 - Mostly clear 10 - - - -
31/03:30am 6.4 SW 8 10 1022.6 - 1.4 - Mostly clear 10 - - - -
31/03:00am 6.3 SW 7 9 1022.6 F 1.4 Recent precip. Mostly cloudy 30 - - - -
31/02:30am 6.6 SW 6 7 1023.1 - 1.4 - Mostly clear 10 - - - -
31/02:00am 6.6 SSW 6 8 1023.4 - 1.2 - Partly cloudy 6 - - - -
31/01:30am 6.3 SSW 6 8 1023.6 - 1.2 - Mostly clear 10 - - - -
31/01:00am 5.9 SW 4 6 1023.6 - 1.2 - Mostly clear 10 - - - -
31/12:30am 6.5 SW 5 7 1023.9 - 1.2 - Mostly clear 10 - - - -
31/12:00am 6.9 SW 6 8 1024.1 F 1.2 Recent precip. Mostly cloudy 15 - - - -
 
Date/Time
EST
Temp

°C
Wind Pressure Rain
since 9am
mm
Weather Cloud Vis
km
Sea
Height
m
Swell
Dir
 
Speed
knots
Gust
knots
hPa Trend Height
m
Period
s
Dir
30/11:30pm 7.2 SSW 6 8 1024.3 - 1.2 Drizzle Mostly clear 6 - - - -
30/11:00pm 7.4 SSW 7 9 1024.5 - 1.0 - Mostly clear 8 - - - -
30/10:30pm 7.5 SW 7 10 1024.6 - 1.0 Drizzle Mostly clear 10 - - - -
30/10:00pm 7.5 SW 6 9 1024.8 - 1.0 - Mostly clear 10 - - - -
30/09:30pm 7.3 SW 8 10 1024.9 - 1.0 - Mostly clear 10 - - - -
30/09:00pm 7.4 SSW 5 7 1024.9 F 1.0 Distant precip. Mostly cloudy 30 - - - -
30/08:30pm 7.3 SW 8 10 1024.8 - 1.0 - Mostly clear 10 - - - -
30/08:00pm 7.4 SSW 7 9 1024.8 - 1.0 - Mostly clear 10 - - - -
30/07:30pm 7.4 SSW 9 15 1024.8 - 1.0 Drizzle Mostly clear 10 - - - -
30/07:00pm 7.3 SSW 9 11 1024.7 - 0.8 - Mostly clear 10 - - - -
30/06:39pm 7.6 S 8 9 1024.7 - 0.8 Drizzle Partly cloudy 5 - - - -
30/06:30pm 7.6 S 8 11 1024.5 - 0.8 - Mostly clear 10 - - - -
30/06:14pm 7.9 SSW 10 15 1024.6 - 0.8 Drizzle Mostly clear 5 - - - -
30/06:00pm 8.0 SSW 7 9 1024.5 F 0.8 Distant precip. Mostly cloudy 30 - - - -
30/05:30pm 7.9 SSW 7 9 1024.4 - 0.8 - Mostly clear 10 - - - -
30/05:00pm 7.9 SSW 8 12 1024.1 - 0.8 - Mostly clear 10 - - - -
30/04:30pm 8.3 SSW 9 12 1024.2 - 0.8 - Mostly clear 10 - - - -
30/04:00pm 8.1 SSW 11 16 1024.3 - 0.8 - Mostly clear 10 - - - -
30/03:59pm 8.2 SSW 11 16 1024.3 - 0.8 - Mostly clear 10 - - - -
30/03:30pm 8.1 SSW 11 15 1024.4 - 0.6 Drizzle Partly cloudy 5 - - - -
30/03:26pm 8.6 SSW 9 14 1024.4 - 0.2 Drizzle Mostly clear 5 - - - -
30/03:09pm 8.7 SSW 11 15 1024.3 - 0.2 Drizzle Partly cloudy 10 - - - -
30/03:00pm 9.0 SW 11 15 1024.3 R 0.2 Distant precip. Mostly cloudy 25 - - - -
30/02:30pm 9.7 S 12 18 1024.3 - 0.2 Showers Mostly clear 10 - - - -
30/02:00pm 9.4 SSW 10 15 1024.3 - 0.2 - Mostly clear 10 - - - -
30/01:30pm 9.6 SSW 12 16 1024.3 - 0.2 - Mostly clear 10 - - - -
30/01:00pm 9.8 SSW 13 17 1024.5 - 0.2 - Mostly clear 10 - - - -
30/12:30pm 8.1 SSW 11 17 1024.8 - 0.2 Showers Mostly clear 10 - - - -
30/12:00pm 8.8 S 11 17 1025.3 F 0.2 Drizzle Cloudy 15 - - - -
30/11:30am 9.2 SSW 14 20 1025.6 - 0.2 Drizzle Mostly clear 10 - - - -
30/11:00am 8.7 SSW 13 20 1025.8 - 0.2 - Mostly clear 10 - - - -
30/10:30am 9.0 SSW 13 21 1025.8 - 0.2 - Mostly clear 10 - - - -
30/10:00am 8.2 SSW 12 16 1026.1 - 0.2 - Mostly clear 10 - - - -
30/09:30am 7.6 SSW 12 18 1026.4 - 0.2 - Mostly clear 10 - - - -
30/09:00am 7.0 S 14 19 1026.3 R 2.6 Drizzle Cloudy 7 - - - -
30/08:30am 7.1 S 13 21 1026.0 - 2.6 Drizzle Mostly clear 7 - - - -
30/08:13am 7.5 SSW 13 18 1025.9 - 2.2 Drizzle Mostly clear 7 - - - -
30/08:00am 7.6 SSW 10 14 1025.8 - 2.2 - Mostly clear 10 - - - -
30/07:30am 6.7 SSW 11 16 1025.6 - 2.2 - Mostly clear 10 - - - -
30/07:10am 6.9 SSW 13 17 1025.5 - 2.0 Drizzle Mostly clear 5 - - - -
30/07:00am 6.9 SSW 9 14 1025.4 - 2.0 - Mostly clear 10 - - - -
30/06:30am 6.5 SSW 9 14 1025.2 - 2.0 Drizzle Mostly clear 6 - - - -
30/06:12am 6.6 SSW 12 16 1025.1 - 1.8 Drizzle Mostly clear 6 - - - -
30/06:00am 6.4 SSW 8 13 1025.0 S 1.8 Drizzle Mostly cloudy 10 - - - -
30/05:52am 6.4 SW 9 14 1025.0 - 1.8 Drizzle Mostly clear 9 - - - -
30/05:38am 6.4 SW 10 15 1024.9 - 1.8 Drizzle Partly cloudy 6 - - - -
30/05:30am 6.4 SSW 12 16 1024.9 - 1.6 Drizzle Partly cloudy 6 - - - -
30/05:20am 6.4 SW 11 17 1024.9 - 1.6 Drizzle Partly cloudy 5 - - - -
30/05:06am 6.2 SW 9 14 1024.9 - 1.4 Drizzle Mostly clear 4 - - - -
30/05:00am 6.1 SW 9 14 1024.8 - 1.4 - Mostly clear 10 - - - -
30/04:49am 6.2 SSW 10 16 1024.9 - 1.4 Drizzle Mostly clear 8 - - - -
30/04:36am 6.2 SW 9 15 1024.9 - 1.2 Drizzle Mostly clear 6 - - - -
30/04:30am 6.2 SW 10 15 1024.7 - 1.2 Drizzle Mostly clear 6 - - - -
30/04:16am 6.4 SW 14 19 1024.7 - 1.2 Drizzle Partly cloudy 9 - - - -
30/04:00am 6.6 SSW 9 16 1024.6 - 1.2 - Partly cloudy 10 - - - -
30/03:30am 6.8 SW 9 13 1024.6 - 1.2 - Mostly cloudy 10 - - - -
30/03:00am 7.2 SSW 12 16 1024.8 F 1.2 Fine Mostly cloudy 30 - - - -
30/02:30am 7.1 SW 11 17 1025.1 - 1.2 - Mostly cloudy 10 - - - -
30/02:00am 7.0 SW 11 15 1025.3 - 1.2 - Mostly cloudy 10 - - - -
30/01:30am 7.2 SW 11 15 1025.7 - 1.2 - Mostly cloudy 10 - - - -
30/01:00am 7.4 SSW 13 16 1025.7 - 1.2 - Mostly cloudy 10 - - - -
30/12:30am 7.5 SSW 11 16 1025.9 - 1.2 - Mostly cloudy 10 - - - -
30/12:00am 7.7 SSW 13 17 1025.9 R 1.2 Haze Mostly cloudy 25 - - - -
 
Date/Time
EST
Temp

°C
Wind Pressure Rain
since 9am
mm
Weather Cloud Vis
km
Sea
Height
m
Swell
Dir
 
Speed
knots
Gust
knots
hPa Trend Height
m
Period
s
Dir
29/11:30pm 7.8 SSW 10 16 1025.8 - 1.2 - Mostly cloudy 10 - - - -
29/11:00pm 7.8 SSW 13 21 1025.8 - 1.2 - Mostly cloudy 10 - - - -
29/10:30pm 7.8 SSW 14 18 1025.8 - 1.2 - Mostly cloudy 10 - - - -
29/10:00pm 7.8 SSW 12 19 1025.8 - 1.2 - Partly cloudy 10 - - - -
29/09:30pm 7.8 SSW 12 17 1025.8 - 1.2 - Partly cloudy 10 - - - -
29/09:00pm 7.8 SSW 13 21 1025.6 R 1.2 Haze Mostly cloudy 14 - - - -
29/08:30pm 7.8 S 15 19 1025.4 - 1.2 - Partly cloudy 10 - - - -
29/08:00pm 8.0 S 17 28 1025.3 - 1.2 - Partly cloudy 10 - - - -
29/07:56pm 7.9 SSW 16 28 1025.2 - 1.2 - Partly cloudy 10 - - - -
29/07:30pm 7.6 SSW 16 21 1025.2 - 1.2 Drizzle Partly cloudy 9 - - - -
29/07:15pm 8.2 S 17 27 1025.0 - 1.2 - Partly cloudy 10 - - - -
29/07:00pm 7.9 SSW 17 26 1024.8 - 1.2 - Partly cloudy 10 - - - -
29/06:42pm 7.7 SSW 16 27 1024.8 - 1.2 Drizzle Partly cloudy 9 - - - -
29/06:30pm 8.1 SSW 14 19 1024.6 - 1.0 Drizzle Partly cloudy 10 - - - -
29/06:00pm 8.1 SSW 17 21 1024.3 R 1.0 Recent precip. Mostly cloudy 15 - - - -
29/05:30pm 7.9 SSW 15 21 1023.8 - 1.0 Drizzle Mostly cloudy 10 - - - -
29/05:00pm 8.0 S 17 21 1023.5 - 1.0 - Partly cloudy 10 - - - -
29/04:30pm 7.7 SSW 17 21 1023.3 - 1.0 Drizzle Mostly clear 10 - - - -
29/04:18pm 8.0 SSW 17 24 1023.2 - 1.0 - Mostly clear 10 - - - -
29/04:00pm 8.0 S 18 26 1023.2 - 1.0 - Mostly clear 7 - - - -
29/03:30pm 7.7 SSW 15 19 1023.1 - 1.0 Drizzle Mostly clear 7 - - - -
29/03:00pm 7.9 SSW 13 24 1023.0 R 1.0 Drizzle Cloudy 7 - - - -
29/02:40pm 7.8 SSW 15 21 1022.9 - 1.0 - Partly cloudy 8 - - - -
29/02:36pm 7.8 SSW 16 26 1022.9 - 0.8 - Partly cloudy 8 - - - -
29/02:30pm 7.8 SSW 21 29 1022.9 - 0.8 Drizzle Mostly clear 7 - - - -
29/02:00pm 8.2 SSW 19 27 1022.6 - 0.4 - Mostly clear 5 - - - -
29/01:30pm 8.3 SSW 21 32 1022.6 - 0.2 Rain Mostly clear 5 - - - -
29/01:23pm 8.5 S 21 32 1022.5 - 0.2 - Partly cloudy 7 - - - -
29/01:20pm 8.4 S 20 28 1022.5 - 0.2 - Partly cloudy 8 - - - -
29/01:00pm 8.9 S 21 29 1022.4 - 0.2 - Mostly clear 5 - - - -
29/12:30pm 8.5 S 20 28 1022.2 - 0.2 Rain Mostly clear 5 - - - -
29/12:00pm 8.7 S 21 33 1022.5 R 0.2 Showers Mostly cloudy 7 - - - -
29/11:30am 8.7 S 21 29 1022.3 - 0.2 Drizzle Mostly clear 9 - - - -
29/11:00am 8.9 S 20 28 1022.2 - 0.2 - Mostly clear 7 - - - -
29/10:30am 9.0 S 22 30 1022.1 - 0.2 Showers Mostly clear 10 - - - -
29/10:00am 8.9 S 23 32 1022.0 - 0.2 - Mostly clear 7 - - - -
29/09:30am 8.3 S 23 31 1021.9 - 0.2 Rain Mostly clear 10 - - - -
29/09:00am 8.5 S 24 33 1021.8 R 19.6 Rain Mostly cloudy 6 - - - -
29/08:44am 8.7 S 23 33 1021.6 - 19.6 - Partly cloudy 10 - - - -
29/08:43am 8.7 S 24 33 1021.6 - 19.6 - Partly cloudy 10 - - - -
29/08:30am 8.9 S 21 32 1021.4 - 19.6 Rain Mostly clear 7 - - - -
29/08:21am 8.9 S 22 32 1021.3 - 19.4 Rain Mostly clear 6 - - - -
29/08:00am 8.9 S 20 29 1021.0 - 19.4 - Mostly clear 6 - - - -
29/07:30am 9.1 S 20 26 1020.5 - 19.0 Rain Mostly clear 6 - - - -
29/07:00am 9.1 S 21 29 1019.9 - 18.2 - Mostly clear 7 - - - -
29/06:30am 9.1 S 21 27 1019.3 - 17.2 Rain Mostly clear 7 - - - -
29/06:00am 9.1 S 18 25 1019.1 R 16.2 Rain Mostly cloudy 6 - - - -

Other Formats:

Comma delimited format used in spreadsheet applications
http://www.bom.gov.au/fwo/IDT60701/IDT60701.94975.axf

JavaScript Object Notation format (JSON) in row-major order
http://www.bom.gov.au/fwo/IDT60701/IDT60701.94975.json